Time;durP1;ratioP1;P1;durP2;ratioP2;P2;SDS_P1;SDS_P2;PMS_P1;PMS_P2;Temp;Humidity;BMP_temperature;BMP_pressure;BME280_temperature;BME280_humidity;BME280_pressure;Samples;Min_cycle;Max_cycle;Signal;HPM_P1;HPM_P2
2023/01/18 00:00:31;;;;;;;7.40;4.45;;;-1.50;99.90;;;;;;5105132;28;20048;-85
2023/01/18 00:03:00;;;;;;;5.88;4.40;;;-1.50;99.90;;;;;;5081936;28;20425;-86
2023/01/18 00:05:26;;;;;;;5.82;4.45;;;-1.50;99.90;;;;;;5104226;28;20044;-85
2023/01/18 00:07:55;;;;;;;7.30;4.70;;;-1.50;99.90;;;;;;5084420;28;20039;-86
2023/01/18 00:10:22;;;;;;;7.30;4.55;;;-1.50;99.90;;;;;;5104743;28;20469;-86
2023/01/18 00:12:48;;;;;;;7.07;4.65;;;-1.10;99.90;;;;;;5086902;28;20042;-87
2023/01/18 00:15:15;;;;;;;6.78;5.10;;;-1.40;99.90;;;;;;5087548;28;20039;-86
2023/01/18 00:17:46;;;;;;;8.00;5.40;;;-1.20;99.90;;;;;;5088935;28;20054;-86
2023/01/18 00:20:16;;;;;;;7.72;5.13;;;-1.40;99.90;;;;;;5088345;28;20050;-86
2023/01/18 00:22:42;;;;;;;7.18;5.00;;;-1.40;99.90;;;;;;5087726;28;20036;-87
2023/01/18 00:25:09;;;;;;;7.68;4.85;;;-1.50;99.90;;;;;;5104986;28;20044;-87
2023/01/18 00:27:43;;;;;;;6.88;4.75;;;-1.50;99.90;;;;;;5105679;28;20165;-86
2023/01/18 00:30:12;;;;;;;8.20;5.00;;;-1.50;99.90;;;;;;5093026;28;20462;-86
2023/01/18 00:32:37;;;;;;;8.13;5.00;;;-1.60;99.90;;;;;;5070018;28;20362;-87
2023/01/18 00:35:06;;;;;;;7.30;4.63;;;-1.10;99.90;;;;;;5088823;28;20044;-87
2023/01/18 00:37:33;;;;;;;6.43;5.10;;;-1.70;99.90;;;;;;5087280;28;20052;-86
2023/01/18 00:39:58;;;;;;;6.55;5.13;;;-1.70;99.90;;;;;;5088975;28;20137;-86
2023/01/18 00:45:11;;;;;;;6.60;5.15;;;-1.70;99.90;;;;;;5088655;28;20059;-86
2023/01/18 00:47:37;;;;;;;9.63;5.93;;;-1.80;99.90;;;;;;5088640;28;20576;-87
2023/01/18 00:50:03;;;;;;;7.90;5.32;;;-1.80;99.90;;;;;;5087720;28;20040;-87
2023/01/18 00:52:29;;;;;;;8.85;5.45;;;-1.80;99.90;;;;;;5088157;28;20040;-87
2023/01/18 00:54:55;;;;;;;9.25;5.35;;;-0.90;99.90;;;;;;5071986;28;20056;-86
2023/01/18 00:57:21;;;;;;;8.13;5.97;;;-1.90;99.90;;;;;;5087396;28;20121;-86
2023/01/18 00:59:46;;;;;;;7.25;5.47;;;-1.90;99.90;;;;;;5071452;28;20048;-87
2023/01/18 01:02:13;;;;;;;8.63;5.47;;;-1.80;99.90;;;;;;5086022;28;20101;-86
2023/01/18 01:07:23;;;;;;;9.50;6.18;;;-1.80;99.90;;;;;;5085208;28;20040;-87
2023/01/18 01:09:49;;;;;;;15.55;6.88;;;-1.80;99.90;;;;;;5080432;28;20040;-85
2023/01/18 01:26:07;;;;;;;7.68;5.68;;;-1.90;99.90;;;;;;5088438;28;20489;-87
2023/01/18 01:28:38;;;;;;;7.97;6.13;;;-1.90;99.90;;;;;;5087615;28;20074;-87
2023/01/18 01:31:06;;;;;;;8.40;6.32;;;-2.70;99.90;;;;;;5082387;28;20711;-87
2023/01/18 01:33:33;;;;;;;9.32;6.13;;;-1.90;99.90;;;;;;5106578;28;20093;-87
2023/01/18 01:36:04;;;;;;;8.70;5.90;;;-2.00;99.90;;;;;;5108036;28;20051;-86
2023/01/18 01:38:31;;;;;;;9.85;5.93;;;-2.00;99.90;;;;;;5105009;28;20074;-87
2023/01/18 01:41:03;;;;;;;9.35;6.78;;;-2.10;99.90;;;;;;5108707;28;20036;-87
2023/01/18 01:43:50;;;;;;;10.00;6.38;;;-2.10;99.90;;;;;;5083064;28;20180;-86
2023/01/18 01:46:24;;;;;;;8.88;6.40;;;-2.10;99.90;;;;;;5081030;28;20090;-87
2023/01/18 01:49:02;;;;;;;8.38;6.38;;;-2.10;99.90;;;;;;5092814;28;20524;-87
2023/01/18 01:51:28;;;;;;;8.90;6.00;;;-2.90;99.90;;;;;;5108888;28;20043;-87
2023/01/18 01:53:58;;;;;;;10.27;6.72;;;-2.10;99.90;;;;;;5091046;28;20342;-86
2023/01/18 01:56:24;;;;;;;8.70;6.03;;;-2.10;99.90;;;;;;5106559;28;20047;-86
2023/01/18 01:58:55;;;;;;;9.98;7.00;;;-2.10;99.90;;;;;;5092070;28;20042;-87
2023/01/18 02:01:20;;;;;;;10.98;7.15;;;-2.10;99.90;;;;;;5106138;28;20442;-86
2023/01/18 02:03:46;;;;;;;9.75;7.18;;;-2.10;99.90;;;;;;5097451;28;20035;-87
2023/01/18 02:06:30;;;;;;;10.63;6.45;;;-2.10;99.90;;;;;;5105964;28;20390;-87
2023/01/18 02:09:02;;;;;;;9.27;6.75;;;-2.10;99.90;;;;;;5071763;28;20055;-86
2023/01/18 02:11:28;;;;;;;10.15;7.10;;;-2.20;99.90;;;;;;5095855;28;20047;-86
2023/01/18 02:13:59;;;;;;;11.38;7.63;;;-2.20;99.90;;;;;;5099652;28;20046;-86
2023/01/18 02:16:54;;;;;;;10.77;7.43;;;-2.30;99.90;;;;;;5075991;28;20044;-86
2023/01/18 02:19:46;;;;;;;14.10;7.68;;;-2.20;99.90;;;;;;5075644;28;20122;-86
2023/01/18 02:22:50;;;;;;;9.82;6.88;;;-2.30;99.90;;;;;;5108616;28;20114;-86
2023/01/18 02:25:34;;;;;;;12.95;7.53;;;-2.30;99.90;;;;;;5087957;28;20414;-86
2023/01/18 02:28:09;;;;;;;11.73;7.50;;;-2.30;99.90;;;;;;5076441;28;20061;-87
2023/01/18 02:30:43;;;;;;;12.15;7.75;;;-2.30;99.90;;;;;;5105040;28;20059;-85
2023/01/18 02:33:41;;;;;;;9.18;7.22;;;-2.20;99.90;;;;;;5106461;28;20434;-87
2023/01/18 02:36:07;;;;;;;10.93;7.03;;;-2.30;99.90;;;;;;5080655;27;20104;-86
2023/01/18 02:38:46;;;;;;;9.48;7.10;;;-2.30;99.90;;;;;;5085620;28;20043;-86
2023/01/18 02:47:10;;;;;;;11.38;7.20;;;-2.20;99.90;;;;;;5095165;28;20119;-86
2023/01/18 02:49:35;;;;;;;11.90;8.13;;;-2.20;99.90;;;;;;5079398;28;20124;-86
2023/01/18 02:52:02;;;;;;;11.48;7.63;;;-2.20;99.90;;;;;;5082508;28;20067;-86
2023/01/18 02:54:30;;;;;;;11.15;7.25;;;-2.20;99.90;;;;;;5106270;28;20361;-86
2023/01/18 02:56:58;;;;;;;10.93;7.70;;;-2.20;99.90;;;;;;5089559;28;20051;-85
2023/01/18 02:59:33;;;;;;;10.68;7.20;;;-2.30;99.90;;;;;;5105693;28;20084;-86
2023/01/18 03:02:13;;;;;;;10.13;7.43;;;-2.10;99.90;;;;;;5084633;28;20083;-86
2023/01/18 03:04:52;;;;;;;11.35;7.90;;;-2.30;99.90;;;;;;5081970;28;20113;-86
2023/01/18 03:07:27;;;;;;;8.52;6.60;;;-2.40;99.90;;;;;;5077511;28;20131;-86
2023/01/18 03:09:54;;;;;;;9.85;7.25;;;-2.40;99.90;;;;;;5103050;28;20054;-86
2023/01/18 03:12:57;;;;;;;10.82;7.57;;;-2.40;99.90;;;;;;5105079;28;20051;-86
2023/01/18 03:15:49;;;;;;;8.73;6.55;;;-2.40;99.90;;;;;;5105825;28;20079;-86
2023/01/18 03:18:33;;;;;;;9.25;6.70;;;-2.40;99.90;;;;;;5106125;28;20147;-86
2023/01/18 03:21:04;;;;;;;10.23;7.13;;;-2.40;99.90;;;;;;5087130;28;20589;-86
2023/01/18 03:23:38;;;;;;;10.57;6.80;;;-2.40;99.90;;;;;;5088837;28;20039;-86
2023/01/18 03:26:15;;;;;;;11.65;6.85;;;-2.50;99.90;;;;;;5090508;28;20055;-85
2023/01/18 03:34:38;;;;;;;13.30;7.10;;;-2.40;99.90;;;;;;5106794;28;20451;-86
2023/01/18 03:37:11;;;;;;;8.85;7.00;;;-2.40;99.90;;;;;;5088741;28;20417;-86
2023/01/18 03:39:50;;;;;;;13.27;7.50;;;-2.50;99.90;;;;;;5106237;28;20051;-86
2023/01/18 03:42:38;;;;;;;13.48;8.38;;;-2.70;99.90;;;;;;5105720;28;20063;-86
2023/01/18 03:45:07;;;;;;;11.45;7.40;;;-2.40;99.90;;;;;;5087465;28;20073;-87
2023/01/18 03:47:33;;;;;;;11.18;7.43;;;-2.40;99.90;;;;;;5106787;28;20044;-86
2023/01/18 03:49:58;;;;;;;9.63;7.63;;;-2.40;99.90;;;;;;5092907;28;20067;-87
2023/01/18 03:52:43;;;;;;;11.23;8.13;;;-2.50;99.90;;;;;;5093826;28;20592;-86
2023/01/18 03:55:39;;;;;;;10.40;7.35;;;-2.50;99.90;;;;;;5104026;28;20051;-85
2023/01/18 03:58:16;;;;;;;11.45;8.20;;;-2.50;99.90;;;;;;5105097;28;20043;-86
2023/01/18 04:00:45;;;;;;;9.57;7.25;;;-2.50;99.90;;;;;;5106800;28;20043;-86
2023/01/18 04:03:13;;;;;;;13.32;7.57;;;-2.50;99.90;;;;;;5108447;28;20040;-85
2023/01/18 04:05:39;;;;;;;10.65;7.25;;;-2.50;99.90;;;;;;5099755;28;20413;-85
2023/01/18 04:08:05;;;;;;;12.45;7.68;;;-2.60;99.90;;;;;;5106540;28;20425;-85
2023/01/18 04:10:31;;;;;;;12.25;8.30;;;-2.60;99.90;;;;;;5078806;28;20036;-85
2023/01/18 04:12:56;;;;;;;12.10;8.60;;;-2.50;99.90;;;;;;5103535;28;20636;-86
2023/01/18 04:15:22;;;;;;;10.95;8.07;;;-2.60;99.90;;;;;;5103974;28;20039;-86
2023/01/18 04:17:51;;;;;;;10.60;7.35;;;-2.60;99.90;;;;;;5098768;28;20040;-86
2023/01/18 04:20:17;;;;;;;11.02;7.88;;;-2.60;99.90;;;;;;5089016;28;20038;-86
2023/01/18 04:22:53;;;;;;;11.23;8.48;;;-2.60;99.90;;;;;;5107978;28;20031;-86
2023/01/18 04:25:19;;;;;;;11.93;8.32;;;-2.60;99.90;;;;;;5103288;28;20567;-86
2023/01/18 04:27:45;;;;;;;11.15;7.78;;;-2.60;99.90;;;;;;5073251;28;20047;-86
2023/01/18 04:30:11;;;;;;;11.15;9.13;;;-2.50;99.90;;;;;;5074838;28;20052;-86
2023/01/18 04:32:36;;;;;;;10.55;8.63;;;-2.50;99.90;;;;;;5089570;28;20142;-86
2023/01/18 04:35:05;;;;;;;12.90;8.70;;;-2.50;99.90;;;;;;5070218;28;20140;-86
2023/01/18 04:41:24;;;;;;;13.32;8.85;;;-2.60;99.90;;;;;;5068668;28;20044;-86
2023/01/18 04:52:16;;;;;;;;;;;;;;;;;;;;;
2023/01/18 04:55:27;;;;;;;12.15;9.30;;;-2.60;99.90;;;;;;5007604;28;20212;-86
2023/01/18 04:57:57;;;;;;;14.25;9.95;;;-2.60;99.90;;;;;;5041661;28;20056;-86
2023/01/18 05:00:23;;;;;;;11.77;8.70;;;-2.60;99.90;;;;;;5090083;28;20032;-86
2023/01/18 05:02:49;;;;;;;14.95;9.05;;;-2.60;99.90;;;;;;5072780;28;20051;-86
2023/01/18 05:05:15;;;;;;;12.50;9.23;;;-2.50;99.90;;;;;;5072163;28;20394;-87
2023/01/18 05:07:41;;;;;;;11.50;8.70;;;-2.50;99.90;;;;;;5088823;28;20048;-86
2023/01/18 05:10:07;;;;;;;15.05;8.70;;;-2.60;99.90;;;;;;5072643;28;20438;-86
2023/01/18 05:12:33;;;;;;;15.25;9.63;;;-2.60;99.90;;;;;;5087925;28;20048;-86
2023/01/18 05:14:58;;;;;;;15.60;9.02;;;-2.70;99.90;;;;;;5070944;28;20055;-86
2023/01/18 05:17:26;;;;;;;13.70;9.60;;;-2.50;99.90;;;;;;5089104;28;20052;-87
2023/01/18 05:19:53;;;;;;;12.82;9.18;;;-2.60;99.90;;;;;;5070307;28;20166;-86
2023/01/18 05:22:20;;;;;;;13.43;9.50;;;-2.60;99.90;;;;;;5088947;28;20371;-86
2023/01/18 05:24:49;;;;;;;11.77;8.85;;;-2.50;99.90;;;;;;5088640;28;20044;-86
2023/01/18 05:27:17;;;;;;;13.15;9.38;;;-2.50;99.90;;;;;;5088319;28;20082;-86
2023/01/18 05:29:52;;;;;;;14.75;9.20;;;-2.50;99.90;;;;;;5089411;28;20063;-86
2023/01/18 05:32:18;;;;;;;14.00;9.88;;;-2.50;99.90;;;;;;5111509;27;20515;-86
2023/01/18 05:34:43;;;;;;;12.15;9.25;;;-2.60;99.90;;;;;;5110777;27;20043;-87
2023/01/18 05:37:12;;;;;;;15.23;9.40;;;-2.60;99.90;;;;;;5096134;27;20057;-86
2023/01/18 05:39:40;;;;;;;14.05;10.05;;;-2.30;99.90;;;;;;5095030;27;20043;-86
2023/01/18 05:42:07;;;;;;;14.45;9.85;;;-2.80;99.90;;;;;;5111044;27;20046;-87
2023/01/18 05:44:39;;;;;;;13.88;9.38;;;-2.70;99.90;;;;;;5110657;27;20047;-87
2023/01/18 05:47:06;;;;;;;12.98;9.60;;;-3.40;99.90;;;;;;5113454;27;20168;-86
2023/01/18 05:49:32;;;;;;;16.33;9.70;;;-2.70;99.90;;;;;;5095258;27;20606;-87
2023/01/18 05:51:57;;;;;;;11.85;9.25;;;-2.50;99.90;;;;;;5108085;28;20138;-86
2023/01/18 05:54:23;;;;;;;11.68;9.05;;;-1.70;99.90;;;;;;5094243;28;20036;-86
2023/01/18 05:56:49;;;;;;;13.30;9.82;;;-2.60;99.90;;;;;;5097468;27;20043;-86
2023/01/18 05:59:14;;;;;;;13.95;9.63;;;-2.60;99.90;;;;;;5098895;27;20039;-86
2023/01/18 06:01:41;;;;;;;11.60;8.90;;;-2.60;99.90;;;;;;5108575;27;20047;-86
2023/01/18 06:04:07;;;;;;;12.25;9.02;;;-2.60;99.90;;;;;;5110271;27;20049;-87
2023/01/18 06:06:32;;;;;;;13.68;9.88;;;-2.60;99.90;;;;;;5101889;28;20051;-87
2023/01/18 06:09:00;;;;;;;11.48;8.93;;;-2.60;99.90;;;;;;5095548;27;20058;-87
2023/01/18 06:11:26;;;;;;;12.50;9.20;;;-2.60;99.90;;;;;;5092560;27;20039;-86
2023/01/18 06:13:54;;;;;;;17.00;10.90;;;-2.60;99.90;;;;;;5079265;27;20047;-86
2023/01/18 06:16:20;;;;;;;16.25;11.27;;;-1.40;99.90;;;;;;5094637;27;20538;-85
2023/01/18 06:18:46;;;;;;;15.15;10.38;;;-2.60;99.90;;;;;;5077171;28;20081;-86
2023/01/18 06:21:11;;;;;;;16.42;10.68;;;-2.60;99.90;;;;;;5081366;28;20084;-86
2023/01/18 06:23:37;;;;;;;12.43;9.73;;;-2.50;99.90;;;;;;5089352;27;20039;-87
2023/01/18 06:26:04;;;;;;;12.90;9.15;;;-2.50;99.90;;;;;;5089978;27;20057;-86
2023/01/18 06:28:29;;;;;;;14.27;10.00;;;-2.50;99.90;;;;;;5092320;27;20043;-86
2023/01/18 06:30:55;;;;;;;15.25;9.55;;;-2.40;99.90;;;;;;5110465;27;20047;-87
2023/01/18 06:33:22;;;;;;;13.65;10.00;;;-2.40;99.90;;;;;;5097557;28;20039;-85
2023/01/18 06:35:47;;;;;;;12.75;9.63;;;-2.40;99.90;;;;;;5088255;27;22041;-86
2023/01/18 06:38:13;;;;;;;11.82;9.63;;;-2.40;99.90;;;;;;5125866;27;20043;-86
2023/01/18 06:40:39;;;;;;;13.02;8.57;;;-2.30;99.90;;;;;;5111366;27;20135;-85
2023/01/18 06:43:07;;;;;;;12.07;8.73;;;-2.30;99.90;;;;;;5109714;27;20121;-85
2023/01/18 06:45:33;;;;;;;13.18;8.48;;;-2.30;99.90;;;;;;5091379;27;20525;-85
2023/01/18 06:47:58;;;;;;;14.35;9.57;;;-2.30;99.90;;;;;;5103977;27;20131;-84
2023/01/18 06:50:24;;;;;;;14.02;8.93;;;-2.20;99.90;;;;;;5110472;27;20103;-85
2023/01/18 06:52:50;;;;;;;12.07;9.15;;;-2.20;99.90;;;;;;5110408;27;20054;-84
2023/01/18 06:55:17;;;;;;;12.80;8.73;;;-2.30;99.90;;;;;;5110840;27;20039;-85
2023/01/18 06:57:46;;;;;;;11.55;8.48;;;-2.20;99.90;;;;;;5109982;27;20446;-84
2023/01/18 07:00:13;;;;;;;11.20;7.80;;;-2.30;99.90;;;;;;5108324;27;20419;-85
2023/01/18 07:02:38;;;;;;;21.75;11.02;;;-2.30;99.90;;;;;;5088607;28;20241;-85
2023/01/18 07:05:05;;;;;;;30.85;15.73;;;-2.30;99.90;;;;;;5089214;28;20048;-85
2023/01/18 07:07:32;;;;;;;34.85;16.90;;;-2.30;99.90;;;;;;5088101;28;20063;-85
2023/01/18 07:09:58;;;;;;;21.88;12.68;;;-2.30;99.90;;;;;;5118366;27;20047;-85
2023/01/18 07:12:23;;;;;;;23.98;13.77;;;-2.30;99.90;;;;;;5092131;27;20386;-85
2023/01/18 07:14:50;;;;;;;21.02;12.93;;;-2.30;99.90;;;;;;5092283;27;20792;-85
2023/01/18 07:17:15;;;;;;;21.17;11.32;;;-2.30;99.90;;;;;;5093292;27;20061;-84
2023/01/18 07:19:41;;;;;;;22.42;11.70;;;-1.60;99.90;;;;;;5093489;27;20047;-84
2023/01/18 07:22:06;;;;;;;16.65;10.93;;;-2.40;99.90;;;;;;5108653;27;20497;-85
2023/01/18 07:24:32;;;;;;;13.10;9.32;;;-2.40;99.90;;;;;;5093369;27;20092;-85
2023/01/18 07:27:02;;;;;;;17.65;10.55;;;-2.40;99.90;;;;;;5120159;27;20616;-85
2023/01/18 07:29:27;;;;;;;17.63;10.18;;;-2.40;99.90;;;;;;5090984;28;20470;-83
2023/01/18 07:31:53;;;;;;;15.02;10.23;;;-2.50;99.90;;;;;;5088847;28;20055;-83
2023/01/18 07:34:18;;;;;;;15.75;9.93;;;-2.50;99.90;;;;;;5090429;28;20447;-84
2023/01/18 07:36:44;;;;;;;12.43;9.20;;;-2.50;99.90;;;;;;5089321;28;20043;-84
2023/01/18 07:39:10;;;;;;;15.15;8.93;;;-2.50;99.90;;;;;;5109550;27;20039;-83
2023/01/18 07:41:37;;;;;;;15.25;7.60;;;-2.50;99.90;;;;;;5127424;27;20043;-83
2023/01/18 07:44:03;;;;;;;12.63;8.48;;;-2.60;99.90;;;;;;5128381;27;20086;-82
2023/01/18 07:46:29;;;;;;;12.93;8.23;;;-2.60;99.90;;;;;;5127784;28;20133;-83
2023/01/18 07:48:55;;;;;;;13.15;8.75;;;-2.60;99.90;;;;;;5126609;28;20122;-82
2023/01/18 07:51:21;;;;;;;15.77;8.88;;;-2.60;99.90;;;;;;5109862;28;20051;-83
2023/01/18 07:53:47;;;;;;;11.73;9.15;;;-2.60;99.90;;;;;;5099999;28;20084;-83
2023/01/18 07:56:16;;;;;;;13.35;9.10;;;-2.60;99.90;;;;;;5099715;28;20061;-82
2023/01/18 07:58:42;;;;;;;15.55;9.98;;;-2.60;99.90;;;;;;5100604;28;20031;-83
2023/01/18 08:01:19;;;;;;;15.32;9.70;;;-2.60;99.90;;;;;;5072629;28;20138;-84
2023/01/18 08:03:48;;;;;;;13.00;8.80;;;-2.20;99.90;;;;;;5094664;28;20047;-83
2023/01/18 08:06:18;;;;;;;14.30;10.63;;;-2.50;99.90;;;;;;5093700;28;20118;-83
2023/01/18 08:08:43;;;;;;;13.80;9.27;;;-2.60;99.90;;;;;;5085181;28;20048;-84
2023/01/18 08:11:10;;;;;;;11.90;9.55;;;-2.50;99.90;;;;;;5100327;28;20047;-84
2023/01/18 08:13:36;;;;;;;16.48;9.90;;;-2.50;99.90;;;;;;5128888;28;20043;-84
2023/01/18 08:16:05;;;;;;;17.08;8.93;;;-2.40;99.90;;;;;;5109448;28;20134;-83
2023/01/18 08:18:31;;;;;;;13.73;9.40;;;-2.40;99.90;;;;;;5093109;28;20092;-83
2023/01/18 08:20:56;;;;;;;16.35;9.55;;;-2.40;99.90;;;;;;5110095;28;20055;-83
2023/01/18 08:23:22;;;;;;;16.52;11.25;;;-2.30;99.90;;;;;;5109852;28;20042;-82
2023/01/18 08:25:48;;;;;;;15.80;10.82;;;-2.30;99.90;;;;;;5128175;28;20042;-87
2023/01/18 08:28:14;;;;;;;15.90;10.48;;;-2.30;99.90;;;;;;5093221;28;20043;-88
2023/01/18 08:30:43;;;;;;;17.52;10.38;;;-2.20;99.90;;;;;;5105891;28;20048;-87
2023/01/18 08:33:09;;;;;;;16.17;10.43;;;-2.20;99.90;;;;;;5106656;28;20476;-88
2023/01/18 08:35:45;;;;;;;44.75;12.77;;;-2.20;99.90;;;;;;5090001;28;20461;-86
2023/01/18 08:38:13;;;;;;;15.13;10.45;;;-2.20;99.90;;;;;;5089682;28;20044;-88
2023/01/18 08:40:39;;;;;;;16.70;10.70;;;-2.10;99.90;;;;;;5089964;28;20088;-87
2023/01/18 08:43:05;;;;;;;19.73;12.10;;;-2.10;99.90;;;;;;5106663;28;20403;-88
2023/01/18 08:45:33;;;;;;;15.32;11.55;;;-2.10;99.90;;;;;;5108030;28;20049;-88
2023/01/18 08:48:01;;;;;;;16.40;10.80;;;-2.10;99.90;;;;;;5106835;28;20147;-89
2023/01/18 08:50:28;;;;;;;16.67;10.60;;;-2.00;99.90;;;;;;5108965;28;20122;-88
2023/01/18 08:52:55;;;;;;;18.40;11.82;;;-2.00;99.90;;;;;;5109427;28;20040;-88
2023/01/18 08:55:21;;;;;;;25.70;16.10;;;-1.90;99.90;;;;;;5094548;28;20069;-88
2023/01/18 08:57:48;;;;;;;17.67;11.82;;;-1.90;99.90;;;;;;5093883;28;20048;-89
2023/01/18 09:00:16;;;;;;;17.98;11.48;;;-1.90;99.90;;;;;;5094346;28;20128;-88
2023/01/18 09:02:42;;;;;;;18.40;11.25;;;-1.80;99.90;;;;;;5111397;28;20051;-89
2023/01/18 09:05:08;;;;;;;16.98;11.43;;;-1.80;99.90;;;;;;5110875;28;20070;-89
2023/01/18 09:07:33;;;;;;;15.02;11.05;;;-1.70;99.90;;;;;;5094329;28;20070;-89
2023/01/18 09:09:59;;;;;;;17.27;11.15;;;-1.60;99.90;;;;;;5110656;28;20430;-87
2023/01/18 09:12:25;;;;;;;14.68;11.02;;;-1.50;99.90;;;;;;5093335;28;20046;-89
2023/01/18 09:14:50;;;;;;;21.15;12.07;;;-1.50;99.90;;;;;;5093731;28;20514;-89
2023/01/18 09:17:20;;;;;;;16.02;10.98;;;-1.40;99.90;;;;;;5111196;28;20043;-89
2023/01/18 09:19:45;;;;;;;19.67;12.10;;;-0.70;99.90;;;;;;5094025;28;20428;-89
2023/01/18 09:22:11;;;;;;;17.17;11.18;;;-1.30;99.90;;;;;;5092443;28;20044;-88
2023/01/18 09:24:37;;;;;;;14.52;11.02;;;-1.20;99.90;;;;;;5092461;28;20052;-88
2023/01/18 09:27:03;;;;;;;17.52;11.23;;;-1.10;99.90;;;;;;5092097;28;20529;-87
2023/01/18 09:29:30;;;;;;;16.80;12.80;;;-1.00;99.90;;;;;;5089333;28;20421;-91
2023/01/18 09:31:56;;;;;;;16.45;11.27;;;0.10;99.90;;;;;;5096703;28;20056;-88
2023/01/18 09:34:22;;;;;;;16.73;10.93;;;-0.90;99.90;;;;;;5085707;28;20055;-87
2023/01/18 09:36:51;;;;;;;16.48;11.07;;;-0.80;99.90;;;;;;5097163;28;20372;-86
2023/01/18 09:39:19;;;;;;;16.75;10.35;;;-0.80;99.90;;;;;;5080314;28;20414;-86
2023/01/18 09:41:51;;;;;;;17.23;11.98;;;-0.70;99.90;;;;;;5074874;28;20051;-87
2023/01/18 09:44:38;;;;;;;13.82;10.32;;;-0.60;99.90;;;;;;5090521;28;20066;-87
2023/01/18 09:47:11;;;;;;;13.85;10.30;;;0.00;99.90;;;;;;5088126;28;20036;-86
2023/01/18 09:49:56;;;;;;;14.65;10.15;;;-0.50;99.90;;;;;;5091857;28;20528;-85
2023/01/18 09:52:50;;;;;;;14.88;10.25;;;-0.50;99.90;;;;;;5089813;28;20122;-83
2023/01/18 09:55:43;;;;;;;15.93;10.35;;;-0.50;99.90;;;;;;5108481;28;20095;-87
2023/01/18 09:58:34;;;;;;;16.23;9.57;;;-0.50;99.90;;;;;;5109939;28;20405;-84
2023/01/18 10:01:14;;;;;;;14.82;10.63;;;-0.40;99.90;;;;;;5106200;28;20039;-83
2023/01/18 10:03:52;;;;;;;14.40;9.98;;;-0.30;99.90;;;;;;5090307;28;20492;-84
2023/01/18 10:06:29;;;;;;;13.48;10.05;;;-0.20;99.90;;;;;;5108167;28;20043;-86
2023/01/18 10:09:19;;;;;;;15.50;10.02;;;-0.10;99.90;;;;;;5106967;28;20035;-86
2023/01/18 10:12:03;;;;;;;13.50;9.73;;;0.60;99.90;;;;;;5094963;28;20051;-86
2023/01/18 10:14:53;;;;;;;13.85;10.25;;;0.20;99.90;;;;;;5090679;28;20039;-86
2023/01/18 10:17:21;;;;;;;12.88;9.70;;;0.30;99.90;;;;;;5100925;28;20567;-86
2023/01/18 10:19:48;;;;;;;13.93;9.25;;;0.40;99.90;;;;;;5100391;28;20039;-86
2023/01/18 10:22:20;;;;;;;14.25;9.73;;;0.50;99.90;;;;;;5099793;28;20040;-85
2023/01/18 10:24:48;;;;;;;13.68;9.35;;;0.60;99.90;;;;;;5091140;28;20130;-86
2023/01/18 10:27:16;;;;;;;10.45;8.38;;;0.70;99.90;;;;;;5095760;28;20131;-85
2023/01/18 10:29:56;;;;;;;16.58;10.90;;;0.80;99.90;;;;;;5108896;28;20138;-85
2023/01/18 10:32:24;;;;;;;23.40;13.07;;;0.90;99.90;;;;;;5107453;28;20087;-85
2023/01/18 10:34:50;;;;;;;11.50;7.93;;;0.80;99.90;;;;;;5103809;28;20045;-85
2023/01/18 10:37:44;;;;;;;12.52;8.98;;;1.00;99.90;;;;;;5107615;28;20042;-85
2023/01/18 10:40:12;;;;;;;12.32;8.38;;;1.20;99.90;;;;;;5090486;28;20046;-85
2023/01/18 10:42:48;;;;;;;10.98;8.50;;;1.20;99.90;;;;;;5090272;28;20461;-84
2023/01/18 10:45:20;;;;;;;9.25;8.30;;;1.30;99.90;;;;;;5091552;28;20394;-85
2023/01/18 10:47:51;;;;;;;11.52;7.97;;;1.40;99.90;;;;;;5109568;28;20048;-86
2023/01/18 10:50:34;;;;;;;11.55;8.10;;;1.50;99.90;;;;;;5102271;28;20040;-84
2023/01/18 10:53:18;;;;;;;;;;;1.60;99.90;;;;;;5071018;28;20104;-84
2023/01/18 10:56:00;;;;;;;10.88;7.57;;;1.60;99.90;;;;;;5076937;28;19939;-84
2023/01/18 10:58:36;;;;;;;11.52;8.80;;;1.70;99.90;;;;;;5107544;28;20178;-84
2023/01/18 11:01:02;;;;;;;12.07;8.30;;;1.80;99.90;;;;;;5106836;28;20055;-84
2023/01/18 11:03:35;;;;;;;9.13;8.10;;;2.20;99.90;;;;;;5091537;28;20440;-84
2023/01/18 11:06:04;;;;;;;10.77;7.90;;;1.90;99.90;;;;;;5071617;28;20036;-85
2023/01/18 11:08:34;;;;;;;11.48;7.88;;;2.00;99.90;;;;;;5090946;27;20108;-84
2023/01/18 11:12:32;;;;;;;12.52;8.00;;;2.00;99.90;;;;;;5091590;28;20122;-84
2023/01/18 11:14:27;;;;;;;12.23;8.82;;;2.10;99.90;;;;;;5108756;28;20051;-84
2023/01/18 11:17:01;;;;;;;11.07;8.07;;;2.20;99.90;;;;;;5107029;28;20039;-85
2023/01/18 11:19:27;;;;;;;9.13;7.90;;;2.20;99.90;;;;;;5108888;28;20461;-84
2023/01/18 11:21:53;;;;;;;12.32;8.05;;;2.30;99.90;;;;;;5104587;28;20052;-85
2023/01/18 11:24:25;;;;;;;11.20;7.20;;;2.30;99.90;;;;;;5095875;28;20043;-90
2023/01/18 11:27:14;;;;;;;11.80;7.80;;;2.30;99.90;;;;;;5084098;28;20054;-89
2023/01/18 11:29:46;;;;;;;8.68;7.68;;;2.40;99.90;;;;;;5100120;28;20401;-89
2023/01/18 11:32:32;;;;;;;11.15;7.93;;;2.40;99.90;;;;;;5111512;27;20078;-88
2023/01/18 11:34:59;;;;;;;8.27;7.45;;;2.90;99.90;;;;;;5085898;28;20132;-89
2023/01/18 11:37:35;;;;;;;10.30;6.85;;;2.50;99.90;;;;;;5106079;28;20051;-88
2023/01/18 11:40:20;;;;;;;10.82;8.10;;;2.60;99.90;;;;;;5111145;28;20079;-88
2023/01/18 11:42:49;;;;;;;12.93;7.53;;;2.60;99.90;;;;;;5100878;28;20136;-89
2023/01/18 11:45:33;;;;;;;8.00;6.93;;;3.30;99.90;;;;;;5092222;28;20408;-89
2023/01/18 11:48:40;;;;;;;10.70;7.18;;;2.80;99.90;;;;;;5104920;28;20044;-88
2023/01/18 11:51:22;;;;;;;10.95;7.75;;;2.90;99.90;;;;;;5103561;28;20048;-90
2023/01/18 11:54:03;;;;;;;10.35;7.30;;;2.70;99.90;;;;;;5086728;28;20047;-91
2023/01/18 11:56:49;;;;;;;8.02;6.65;;;3.00;99.90;;;;;;5090439;28;20040;-89
2023/01/18 11:59:29;;;;;;;10.95;7.20;;;2.70;99.90;;;;;;5077598;28;20090;-88
2023/01/18 12:02:17;;;;;;;9.93;6.90;;;3.10;99.90;;;;;;5091553;28;20071;-92
2023/01/18 12:04:51;;;;;;;10.60;7.15;;;3.20;99.90;;;;;;5086884;28;20032;-90
2023/01/18 12:07:49;;;;;;;9.50;6.78;;;3.20;99.90;;;;;;5108537;28;20047;-88
2023/01/18 12:10:20;;;;;;;7.35;6.40;;;3.30;99.90;;;;;;5107394;28;20040;-88
2023/01/18 12:13:15;;;;;;;8.63;7.05;;;3.30;99.90;;;;;;5089240;28;20055;-89
2023/01/18 12:16:17;;;;;;;9.75;6.60;;;3.30;99.90;;;;;;5107033;28;20036;-89
2023/01/18 12:19:20;;;;;;;9.73;7.70;;;3.40;99.90;;;;;;5017078;28;20152;-88
2023/01/18 12:22:11;;;;;;;8.77;7.05;;;3.40;99.90;;;;;;5102971;28;20093;-89
2023/01/18 12:25:17;;;;;;;8.75;6.30;;;3.40;99.90;;;;;;5108285;28;20092;-86
2023/01/18 12:28:00;;;;;;;7.70;6.57;;;3.40;99.90;;;;;;5110769;28;20048;-88
2023/01/18 12:30:29;;;;;;;7.32;6.60;;;3.40;99.90;;;;;;5110021;28;20047;-86
2023/01/18 12:33:13;;;;;;;8.20;7.33;;;3.50;99.90;;;;;;5094215;28;20051;-87
2023/01/18 12:35:55;;;;;;;8.55;6.82;;;3.50;99.90;;;;;;5110794;28;20039;-89
2023/01/18 12:38:48;;;;;;;9.50;7.27;;;3.60;99.90;;;;;;5094614;28;20047;-90
2023/01/18 12:41:36;;;;;;;;;;;3.70;99.90;;;;;;5111965;28;20108;-86
2023/01/18 12:44:32;;;;;;;9.18;6.68;;;3.80;99.90;;;;;;5111155;28;19920;-88
2023/01/18 12:47:10;;;;;;;15.38;8.55;;;3.80;99.90;;;;;;5093361;28;20040;-88
2023/01/18 12:49:44;;;;;;;8.30;6.88;;;4.70;99.90;;;;;;5093929;28;20047;-87
2023/01/18 12:52:13;;;;;;;9.02;6.90;;;3.90;99.90;;;;;;5109384;28;20069;-87
2023/01/18 12:54:54;;;;;;;8.82;6.32;;;3.90;99.90;;;;;;5110339;28;20051;-87
2023/01/18 12:57:22;;;;;;;9.07;5.82;;;3.90;99.90;;;;;;5100147;28;20105;-85
2023/01/18 13:00:01;;;;;;;7.50;6.80;;;3.90;99.90;;;;;;5087736;28;20076;-86
2023/01/18 13:02:39;;;;;;;14.07;5.95;;;4.00;99.90;;;;;;5108346;28;20048;-87
2023/01/18 13:05:33;;;;;;;8.63;6.47;;;4.00;99.90;;;;;;5091442;28;20135;-86
2023/01/18 13:08:09;;;;;;;7.63;6.20;;;4.60;99.90;;;;;;5109719;28;20063;-87
2023/01/18 13:10:36;;;;;;;7.13;5.57;;;4.10;99.90;;;;;;5105668;28;20036;-88
2023/01/18 13:13:04;;;;;;;7.88;5.95;;;4.10;99.90;;;;;;5078891;28;20040;-86
2023/01/18 13:15:43;;;;;;;8.15;5.38;;;4.30;99.90;;;;;;5097804;28;20489;-86
2023/01/18 13:18:25;;;;;;;8.00;5.60;;;5.10;99.90;;;;;;5109392;28;20343;-88
2023/01/18 13:21:02;;;;;;;10.30;5.80;;;4.10;99.90;;;;;;5110946;28;20119;-86
2023/01/18 13:23:37;;;;;;;9.13;5.93;;;4.50;99.90;;;;;;5093276;28;20047;-87
2023/01/18 13:26:13;;;;;;;9.57;6.38;;;4.70;99.90;;;;;;5108481;28;20138;-87
2023/01/18 13:28:38;;;;;;;10.00;6.22;;;4.10;99.90;;;;;;5111727;28;20502;-88
2023/01/18 13:31:05;;;;;;;9.30;6.78;;;4.10;99.90;;;;;;5092806;28;20056;-87
2023/01/18 13:33:40;;;;;;;8.23;6.32;;;4.20;99.90;;;;;;5092633;28;20051;-86
2023/01/18 13:36:16;;;;;;;8.05;5.72;;;4.20;99.90;;;;;;5110061;28;20131;-87
2023/01/18 13:38:54;;;;;;;7.18;5.68;;;4.20;99.90;;;;;;5094008;28;20050;-88
2023/01/18 13:41:25;;;;;;;7.40;5.85;;;4.10;99.90;;;;;;5091650;28;20497;-88
2023/01/18 13:43:51;;;;;;;10.57;7.03;;;4.10;99.90;;;;;;5109940;28;20046;-88
2023/01/18 13:46:18;;;;;;;12.98;6.85;;;4.10;99.90;;;;;;5110818;28;20050;-88
2023/01/18 13:48:55;;;;;;;8.43;6.03;;;4.00;99.90;;;;;;5112619;28;20075;-87
2023/01/18 13:51:39;;;;;;;10.93;6.50;;;3.90;99.90;;;;;;5093013;28;20096;-87